Time;durP1;ratioP1;P1;durP2;ratioP2;P2;SDS_P1;SDS_P2;PMS_P1;PMS_P2;Temp;Humidity;BMP_temperature;BMP_pressure;BME280_temperature;BME280_humidity;BME280_pressure;Samples;Min_cycle;Max_cycle;Signal;HPM_P1;HPM_P2
2022/07/03 00:01:29;;;;;;;;;;;;;;;-144.99;72.14;52260.56;4964804;28;20426;-62
2022/07/03 00:03:56;;;;;;;;;;;;;;;-144.99;72.81;52232.03;4964489;28;19934;-62
2022/07/03 00:06:22;;;;;;;;;;;;;;;-144.99;73.42;52268.72;4966188;28;19969;-62
2022/07/03 00:08:49;;;;;;;;;;;;;;;-144.99;73.93;52305.41;4959690;28;19930;-62
2022/07/03 00:11:16;;;;;;;;;;;;;;;-144.99;74.41;52252.44;4959514;28;19934;-62
2022/07/03 00:13:44;;;;;;;;;;;;;;;-144.99;74.73;52248.34;4955819;28;19933;-62
2022/07/03 00:16:10;;;;;;;;;;;;;;;-144.99;75.07;52258.53;4960966;28;20446;-62
2022/07/03 00:18:37;;;;;;;;;;;;;;;-144.99;74.98;52256.50;4959506;28;20009;-62
2022/07/03 00:21:04;;;;;;;;;;;;;;;-144.99;75.29;52242.22;4961039;28;19988;-62
2022/07/03 00:23:35;;;;;;;;;;;;;;;-144.99;75.77;52244.28;4957391;28;19983;-61
2022/07/03 00:26:04;;;;;;;;;;;;;;;-144.99;76.39;52289.13;4953709;28;19957;-61
2022/07/03 00:28:32;;;;;;;;;;;;;;;-144.99;76.75;52250.38;4959452;28;20035;-63
2022/07/03 00:31:00;;;;;;;;;;;;;;;-144.99;77.14;52278.91;4956188;28;20033;-64
2022/07/03 00:33:28;;;;;;;;;;;;;;;-144.99;77.33;52252.44;4959896;28;19969;-64
2022/07/03 00:35:55;;;;;;;;;;;;;;;-144.99;77.87;52227.97;4963405;28;19930;-64
2022/07/03 00:38:22;;;;;;;;;;;;;;;-144.99;78.33;52258.53;4959238;28;19988;-64
2022/07/03 00:40:49;;;;;;;;;;;;;;;-144.99;78.56;52252.44;4963866;28;20025;-67
2022/07/03 00:43:16;;;;;;;;;;;;;;;-144.99;78.64;52252.44;4955546;28;20418;-68
2022/07/03 00:45:46;;;;;;;;;;;;;;;-144.99;78.44;52289.13;4962040;28;20395;-68
2022/07/03 00:48:15;;;;;;;;;;;;;;;-144.99;77.71;52246.31;4968246;28;19974;-65
2022/07/03 00:50:45;;;;;;;;;;;;;;;-144.99;77.14;52232.03;4961172;28;20184;-66
2022/07/03 00:53:13;;;;;;;;;;;;;;;-144.99;76.77;52260.56;4955803;28;20438;-64
2022/07/03 00:55:40;;;;;;;;;;;;;;;-144.99;76.22;52211.66;4961107;28;20659;-72
2022/07/03 00:58:07;;;;;;;;;;;;;;;-144.99;74.76;52236.13;4951701;28;19930;-72
2022/07/03 01:00:35;;;;;;;;;;;;;;;-144.99;74.91;52230.00;4958523;28;19976;-73
2022/07/03 01:03:05;;;;;;;;;;;;;;;-144.99;74.30;52260.56;4955616;28;19970;-72
2022/07/03 01:05:36;;;;;;;;;;;;;;;-144.99;73.64;52285.03;4959763;28;20386;-71
2022/07/03 01:08:08;;;;;;;;;;;;;;;-144.99;73.49;52248.34;4953512;28;20272;-70
2022/07/03 01:10:38;;;;;;;;;;;;;;;-144.99;73.30;52264.66;4963047;28;20133;-73
2022/07/03 01:13:08;;;;;;;;;;;;;;;-144.99;73.04;52238.16;4962285;28;20340;-70
2022/07/03 01:15:37;;;;;;;;;;;;;;;-144.99;72.62;52248.34;4963372;28;20297;-71
2022/07/03 01:18:11;;;;;;;;;;;;;;;-144.99;72.66;52276.88;4954860;28;19936;-71
2022/07/03 01:20:39;;;;;;;;;;;;;;;-144.99;72.53;52297.25;4959141;28;20579;-71
2022/07/03 01:23:10;;;;;;;;;;;;;;;-144.99;72.13;52289.13;4956418;28;20017;-68
2022/07/03 01:25:41;;;;;;;;;;;;;;;-144.99;72.08;52283.00;4953050;28;20037;-68
2022/07/03 01:28:13;;;;;;;;;;;;;;;-144.99;71.69;52236.13;4957555;28;19972;-69
2022/07/03 01:30:40;;;;;;;;;;;;;;;-144.99;71.37;52248.34;4959717;28;20025;-69
2022/07/03 01:33:07;;;;;;;;;;;;;;;-144.99;71.07;52246.31;4959530;28;20017;-67
2022/07/03 01:35:34;;;;;;;;;;;;;;;-144.99;70.96;52268.72;4959154;28;19934;-67
2022/07/03 01:38:06;;;;;;;;;;;;;;;-144.99;70.48;52232.03;4957843;28;19935;-68
2022/07/03 01:40:33;;;;;;;;;;;;;;;-144.99;70.12;52260.56;4961118;28;19987;-69
2022/07/03 01:43:02;;;;;;;;;;;;;;;-144.99;69.95;52215.75;4957056;28;20353;-69
2022/07/03 01:45:29;;;;;;;;;;;;;;;-144.99;69.59;52256.50;4958060;28;19970;-66
2022/07/03 01:47:57;;;;;;;;;;;;;;;-144.99;69.34;52268.72;4966708;28;20032;-69
2022/07/03 01:50:25;;;;;;;;;;;;;;;-144.99;68.84;52276.88;4984112;28;19933;-68
2022/07/03 01:52:52;;;;;;;;;;;;;;;-144.99;68.18;52266.69;4959260;28;20288;-65
2022/07/03 01:55:20;;;;;;;;;;;;;;;-144.99;67.72;52280.97;4960712;28;19930;-65
2022/07/03 01:57:47;;;;;;;;;;;;;;;-144.99;67.48;52252.44;4959416;28;19961;-64
2022/07/03 02:00:18;;;;;;;;;;;;;;;-144.99;67.00;52223.88;4972168;28;19927;-64
2022/07/03 02:02:50;;;;;;;;;;;;;;;-144.99;66.50;52244.28;4611928;28;10000128;-64
2022/07/03 02:05:29;;;;;;;;;;;;;;;-144.99;66.15;52227.97;4952579;28;20561;-64
2022/07/03 02:07:59;;;;;;;;;;;;;;;-144.99;65.59;52232.03;4953442;28;19975;-63
2022/07/03 02:10:28;;;;;;;;;;;;;;;-144.99;65.16;52244.28;4965283;28;20368;-64
2022/07/03 02:13:01;;;;;;;;;;;;;;;-144.99;64.72;52250.38;4969567;28;20032;-65
2022/07/03 02:15:31;;;;;;;;;;;;;;;-144.99;64.60;52244.28;4965130;28;19970;-64
2022/07/03 02:17:58;;;;;;;;;;;;;;;-144.99;63.99;52230.00;4956459;28;19972;-64
2022/07/03 02:20:25;;;;;;;;;;;;;;;-144.99;63.37;52236.13;4963774;28;19966;-64
2022/07/03 02:22:57;;;;;;;;;;;;;;;-144.99;63.05;52230.00;4961977;28;19976;-65
2022/07/03 02:25:24;;;;;;;;;;;;;;;-144.99;62.70;52236.13;4965238;28;20446;-64
2022/07/03 02:27:52;;;;;;;;;;;;;;;-144.99;62.54;52232.03;4959993;28;19991;-65
2022/07/03 02:30:18;;;;;;;;;;;;;;;-144.99;62.26;52232.03;4963974;28;19938;-64
2022/07/03 02:32:49;;;;;;;;;;;;;;;-144.99;61.96;52268.72;4985805;28;19972;-63
2022/07/03 02:35:24;;;;;;;;;;;;;;;-144.99;61.90;52211.66;5020723;22;19982;-63
2022/07/03 02:37:54;;;;;;;;;;;;;;;-144.99;61.95;52252.44;4981978;28;20032;-66
2022/07/03 02:40:23;;;;;;;;;;;;;;;-144.99;62.04;52248.34;4969711;28;20424;-66
2022/07/03 02:42:56;;;;;;;;;;;;;;;-144.99;61.94;52240.19;4990811;28;20366;-68
2022/07/03 02:45:26;;;;;;;;;;;;;;;-144.99;62.15;52234.09;4978344;28;20065;-68
2022/07/03 02:47:59;;;;;;;;;;;;;;;-144.99;61.97;52252.44;4975619;28;20466;-61
2022/07/03 02:50:26;;;;;;;;;;;;;;;-144.99;62.21;52248.34;4990570;28;19925;-62
2022/07/03 02:52:59;;;;;;;;;;;;;;;-144.99;62.18;52227.97;4975270;28;20012;-60
2022/07/03 02:55:40;;;;;;;;;;;;;;;-144.99;62.25;52248.34;4966620;28;20009;-63
2022/07/03 02:58:11;;;;;;;;;;;;;;;-144.99;62.42;52236.13;4965234;28;20441;-62
2022/07/03 03:00:39;;;;;;;;;;;;;;;-144.99;62.60;52270.78;4967076;28;19930;-63
2022/07/03 03:03:08;;;;;;;;;;;;;;;-144.99;62.63;52240.19;4962789;28;19948;-65
2022/07/03 03:05:38;;;;;;;;;;;;;;;-144.99;62.67;52240.19;4967199;28;20530;-63
2022/07/03 03:08:11;;;;;;;;;;;;;;;-144.99;62.70;52258.53;4967077;28;19926;-63
2022/07/03 03:10:39;;;;;;;;;;;;;;;-144.99;62.88;52285.03;4968980;28;20342;-62
2022/07/03 03:13:07;;;;;;;;;;;;;;;-144.99;62.88;52252.44;4968303;28;20418;-63
2022/07/03 03:15:33;;;;;;;;;;;;;;;-144.99;62.88;52215.75;4972627;28;20132;-63
2022/07/03 03:18:02;;;;;;;;;;;;;;;-144.99;63.15;52264.66;4969851;28;20460;-63
2022/07/03 03:20:31;;;;;;;;;;;;;;;-144.99;63.42;52270.78;4967103;28;20009;-67
2022/07/03 03:23:05;;;;;;;;;;;;;;;-144.99;63.61;52244.28;4979774;28;19969;-62
2022/07/03 03:25:32;;;;;;;;;;;;;;;-144.99;63.74;52260.56;4968959;28;20018;-62
2022/07/03 03:27:59;;;;;;;;;;;;;;;-144.99;63.96;52240.19;4967333;28;20272;-64
2022/07/03 03:30:26;;;;;;;;;;;;;;;-144.99;64.26;52248.34;4968091;28;19977;-61
2022/07/03 03:32:52;;;;;;;;;;;;;;;-144.99;64.39;52240.19;4968366;28;20025;-65
2022/07/03 03:35:19;;;;;;;;;;;;;;;-144.99;64.61;52260.56;4981850;28;20021;-66
2022/07/03 03:37:48;;;;;;;;;;;;;;;-144.99;64.63;52276.88;4966896;28;20236;-69
2022/07/03 03:40:15;;;;;;;;;;;;;;;-144.99;64.71;52272.81;4969962;28;20370;-66
2022/07/03 03:42:42;;;;;;;;;;;;;;;-144.99;64.86;52256.50;4967361;28;20237;-62
2022/07/03 03:45:09;;;;;;;;;;;;;;;-144.99;65.03;52242.22;4968226;28;19930;-62
2022/07/03 03:47:36;;;;;;;;;;;;;;;-144.99;65.36;52232.03;4973408;28;19926;-63
2022/07/03 03:50:02;;;;;;;;;;;;;;;-144.99;65.52;52252.44;4966163;28;19937;-65
2022/07/03 03:52:29;;;;;;;;;;;;;;;-144.99;65.61;52276.88;4966028;28;20021;-63
2022/07/03 03:54:57;;;;;;;;;;;;;;;-144.99;65.77;52232.03;4978186;28;19966;-64
2022/07/03 03:57:24;;;;;;;;;;;;;;;-144.99;65.82;52276.88;4965964;28;20581;-60
2022/07/03 03:59:51;;;;;;;;;;;;;;;-144.99;66.20;52242.22;4967047;28;20015;-62
2022/07/03 04:02:18;;;;;;;;;;;;;;;-144.99;66.07;52293.19;4967670;28;20005;-61
2022/07/03 04:04:45;;;;;;;;;;;;;;;-144.99;66.67;52252.44;4967259;28;19957;-62
2022/07/03 04:07:12;;;;;;;;;;;;;;;-144.99;66.80;52287.06;4971414;28;20471;-61
2022/07/03 04:09:38;;;;;;;;;;;;;;;-144.99;67.14;52256.50;4968054;28;19966;-62
2022/07/03 04:12:06;;;;;;;;;;;;;;;-144.99;67.09;52234.09;4968819;28;19957;-62
2022/07/03 04:14:33;;;;;;;;;;;;;;;-144.99;67.18;52280.97;4969415;28;19926;-62
2022/07/03 04:16:59;;;;;;;;;;;;;;;-144.99;67.33;52244.28;4967739;28;19961;-62
2022/07/03 04:19:26;;;;;;;;;;;;;;;-144.99;67.21;52225.94;4970806;28;20401;-66
2022/07/03 04:21:52;;;;;;;;;;;;;;;-144.99;67.25;52262.63;4984222;28;20027;-65
2022/07/03 04:24:19;;;;;;;;;;;;;;;-144.99;67.32;52264.66;4967958;28;19977;-67
2022/07/03 04:26:45;;;;;;;;;;;;;;;-144.99;67.55;52232.03;4967639;28;20029;-65
2022/07/03 04:29:13;;;;;;;;;;;;;;;-144.99;67.84;52268.72;4967806;28;19969;-69
2022/07/03 04:31:39;;;;;;;;;;;;;;;-144.99;67.71;52260.56;4966733;28;20153;-62
2022/07/03 04:34:06;;;;;;;;;;;;;;;-144.99;67.36;52236.13;4965600;28;19934;-63
2022/07/03 04:36:32;;;;;;;;;;;;;;;-144.99;67.23;52260.56;4971359;28;20357;-61
2022/07/03 04:38:59;;;;;;;;;;;;;;;-144.99;67.24;52236.13;4965479;28;20017;-62
2022/07/03 04:41:25;;;;;;;;;;;;;;;-144.99;66.95;52236.13;4965235;28;20028;-60
2022/07/03 04:43:52;;;;;;;;;;;;;;;-144.99;66.89;52240.19;4965337;28;20398;-61
2022/07/03 04:46:21;;;;;;;;;;;;;;;-144.99;66.64;52242.22;4971398;28;19930;-61
2022/07/03 04:48:47;;;;;;;;;;;;;;;-144.99;66.50;52215.75;4966750;28;19927;-65
2022/07/03 04:51:14;;;;;;;;;;;;;;;-144.99;66.53;52225.94;4971893;28;20005;-59
2022/07/03 04:53:40;;;;;;;;;;;;;;;-144.99;66.71;52195.34;4967803;28;20323;-57
2022/07/03 04:56:07;;;;;;;;;;;;;;;-144.99;66.24;52258.53;4968010;28;20458;-59
2022/07/03 04:58:33;;;;;;;;;;;;;;;-144.99;66.24;52207.59;4963407;28;20017;-60
2022/07/03 05:00:59;;;;;;;;;;;;;;;-144.99;66.22;52260.56;4967151;28;19929;-60
2022/07/03 05:03:28;;;;;;;;;;;;;;;-144.99;66.02;52191.28;4963244;28;19936;-58
2022/07/03 05:05:54;;;;;;;;;;;;;;;-144.99;65.68;52209.63;4963445;28;19926;-58
2022/07/03 05:08:20;;;;;;;;;;;;;;;-144.99;65.26;52219.81;4963046;28;20017;-58
2022/07/03 05:10:47;;;;;;;;;;;;;;;-144.99;65.08;52195.34;4977922;28;19933;-59
2022/07/03 05:13:13;;;;;;;;;;;;;;;-144.99;64.92;52215.75;4967935;28;19937;-62
2022/07/03 05:15:40;;;;;;;;;;;;;;;-144.99;64.19;52219.81;4977935;28;19925;-62
2022/07/03 05:18:06;;;;;;;;;;;;;;;-144.99;63.83;52207.59;4964853;28;19999;-61
2022/07/03 05:20:34;;;;;;;;;;;;;;;-144.99;63.06;52170.91;4966498;28;19965;-64
2022/07/03 05:23:02;;;;;;;;;;;;;;;-144.99;61.47;52197.41;4967221;28;19926;-61
2022/07/03 05:25:30;;;;;;;;;;;;;;;-144.99;61.23;52215.75;4967286;28;19961;-60
2022/07/03 05:27:57;;;;;;;;;;;;;;;-144.99;60.55;52223.88;4961341;28;19927;-60
2022/07/03 05:30:24;;;;;;;;;;;;;;;-144.99;59.98;52177.00;4970425;28;19960;-60
2022/07/03 05:32:51;;;;;;;;;;;;;;;-144.99;59.82;52195.34;4961200;28;20460;-59
2022/07/03 05:35:18;;;;;;;;;;;;;;;-144.99;58.39;52215.75;4965201;28;19985;-59
2022/07/03 05:37:45;;;;;;;;;;;;;;;-144.99;58.53;52203.50;4963798;28;20095;-61
2022/07/03 05:40:12;;;;;;;;;;;;;;;-144.99;57.77;52207.59;4964828;28;20017;-59
2022/07/03 05:42:39;;;;;;;;;;;;;;;-144.99;57.77;52207.59;4967005;28;20421;-62
2022/07/03 05:45:06;;;;;;;;;;;;;;;-144.99;57.89;52195.34;4961578;28;20037;-58
2022/07/03 05:47:32;;;;;;;;;;;;;;;-144.99;58.68;52203.50;4965212;28;20095;-57
2022/07/03 05:49:59;;;;;;;;;;;;;;;-144.99;58.64;52181.09;4965408;28;20071;-59
2022/07/03 05:52:25;;;;;;;;;;;;;;;-144.99;58.37;52191.28;4965221;28;19962;-61
2022/07/03 05:54:53;;;;;;;;;;;;;;;-144.99;57.98;52199.44;4973900;28;20017;-61
2022/07/03 05:57:20;;;;;;;;;;;;;;;-144.99;57.97;52219.81;4970645;28;20356;-59
2022/07/03 05:59:46;;;;;;;;;;;;;;;-144.99;57.35;52203.50;4965664;28;19934;-64
2022/07/03 06:02:13;;;;;;;;;;;;;;;-144.99;57.41;52207.59;4965824;28;20009;-65
2022/07/03 06:04:39;;;;;;;;;;;;;;;-144.99;57.97;52223.88;4967661;28;19969;-64
2022/07/03 06:07:06;;;;;;;;;;;;;;;-144.99;57.12;52179.06;4970236;28;19926;-64
2022/07/03 06:09:32;;;;;;;;;;;;;;;-144.99;57.71;52177.00;4965962;28;20208;-65
2022/07/03 06:12:00;;;;;;;;;;;;;;;-144.99;57.53;52154.59;4976332;28;19969;-64
2022/07/03 06:14:27;;;;;;;;;;;;;;;-144.99;57.26;52183.13;4969688;28;19980;-64
2022/07/03 06:16:53;;;;;;;;;;;;;;;-144.99;57.29;52183.13;4977271;28;20024;-66
2022/07/03 06:19:20;;;;;;;;;;;;;;;-144.99;57.19;52174.97;4972787;28;20026;-64
2022/07/03 06:21:46;;;;;;;;;;;;;;;-144.99;57.12;52197.41;4968011;28;19926;-63
2022/07/03 06:24:12;;;;;;;;;;;;;;;-144.99;57.15;52211.66;4982122;28;20029;-61
2022/07/03 06:26:39;;;;;;;;;;;;;;;-144.99;57.12;52183.13;4983638;28;20410;-60
2022/07/03 06:29:07;;;;;;;;;;;;;;;-144.99;56.89;52183.13;4965974;28;19961;-60
2022/07/03 06:31:33;;;;;;;;;;;;;;;-144.99;57.17;52191.28;4982347;28;19930;-60
2022/07/03 06:34:00;;;;;;;;;;;;;;;-144.99;57.29;52136.25;4976774;28;20010;-60
2022/07/03 06:36:26;;;;;;;;;;;;;;;-144.99;57.15;52174.97;4966768;28;19969;-60
2022/07/03 06:38:52;;;;;;;;;;;;;;;-144.99;56.82;52195.34;4967073;28;20005;-59
2022/07/03 06:41:19;;;;;;;;;;;;;;;-144.99;54.86;52158.66;4975666;28;20000;-60
2022/07/03 06:43:45;;;;;;;;;;;;;;;-144.99;53.89;52146.44;4963857;28;20029;-60
2022/07/03 06:46:13;;;;;;;;;;;;;;;-144.99;53.17;52170.91;4966756;28;20344;-61
2022/07/03 06:48:40;;;;;;;;;;;;;;;-144.99;53.98;52164.78;4972851;28;19936;-63
2022/07/03 06:51:06;;;;;;;;;;;;;;;-144.99;52.78;52138.28;4971290;28;19933;-62
2022/07/03 06:53:33;;;;;;;;;;;;;;;-144.99;51.99;52158.66;4974852;28;20058;-62
2022/07/03 06:55:59;;;;;;;;;;;;;;;-144.99;51.99;52154.59;4969532;28;20372;-62
2022/07/03 06:58:26;;;;;;;;;;;;;;;-144.99;51.94;52179.06;4968815;28;20355;-63
2022/07/03 07:00:52;;;;;;;;;;;;;;;-144.99;51.23;52160.72;4965190;28;19968;-62
2022/07/03 07:03:20;;;;;;;;;;;;;;;-144.99;51.27;52138.28;4966589;28;19961;-61
2022/07/03 07:05:46;;;;;;;;;;;;;;;-144.99;50.92;52124.03;4976417;28;19932;-60
2022/07/03 07:08:13;;;;;;;;;;;;;;;-144.99;50.43;52150.53;4970619;28;19926;-60
2022/07/03 07:10:39;;;;;;;;;;;;;;;-144.99;50.80;52121.97;4975931;28;20207;-61
2022/07/03 07:13:06;;;;;;;;;;;;;;;-144.99;51.14;52121.97;4967019;28;19930;-61
2022/07/03 07:15:32;;;;;;;;;;;;;;;-144.99;51.70;52138.28;4974623;28;20017;-63
2022/07/03 07:17:58;;;;;;;;;;;;;;;-144.99;51.02;52130.13;4965497;28;20023;-65
2022/07/03 07:20:26;;;;;;;;;;;;;;;-144.99;50.85;52109.75;4967194;28;20371;-65
2022/07/03 07:22:53;;;;;;;;;;;;;;;-144.99;50.41;52113.84;4966889;28;20029;-64
2022/07/03 07:25:20;;;;;;;;;;;;;;;-144.99;50.21;52071.03;4973054;28;20025;-64
2022/07/03 07:27:47;;;;;;;;;;;;;;;-144.99;48.29;52117.91;4967519;28;20062;-64
2022/07/03 07:30:14;;;;;;;;;;;;;;;-144.99;48.71;52105.69;4968507;28;19930;-65
2022/07/03 07:32:40;;;;;;;;;;;;;;;-144.99;48.83;52087.34;4965884;28;20779;-65
2022/07/03 07:35:07;;;;;;;;;;;;;;;-144.99;48.28;52060.84;4969715;28;20003;-65
2022/07/03 07:37:35;;;;;;;;;;;;;;;-144.99;48.58;52081.22;4967879;28;19926;-66
2022/07/03 07:40:02;;;;;;;;;;;;;;;-144.99;47.77;52040.47;4970136;28;20351;-65
2022/07/03 07:42:28;;;;;;;;;;;;;;;-144.99;47.14;52081.22;4964341;28;19926;-65
2022/07/03 07:44:55;;;;;;;;;;;;;;;-144.99;47.42;52064.91;4974481;28;19987;-67
2022/07/03 07:47:21;;;;;;;;;;;;;;;-144.99;47.96;52085.31;4979906;28;19940;-64
2022/07/03 07:49:48;;;;;;;;;;;;;;;-144.99;48.15;52089.38;4966379;28;20029;-66
2022/07/03 07:52:14;;;;;;;;;;;;;;;-144.99;47.81;52113.84;4970849;28;19929;-64
2022/07/03 07:54:42;;;;;;;;;;;;;;;-144.99;47.66;52073.06;4964808;28;19949;-64
2022/07/03 07:57:08;;;;;;;;;;;;;;;-144.99;47.53;52089.38;4966103;28;20044;-65
2022/07/03 07:59:35;;;;;;;;;;;;;;;-144.99;46.29;52044.53;4967416;28;20016;-64
2022/07/03 08:07:29;;;;;;;;;;;;;;;-144.99;47.32;52069.00;4958883;28;19941;-65
2022/07/03 08:09:57;;;;;;;;;;;;;;;-144.99;47.90;52093.44;4966786;28;20469;-65
2022/07/03 08:12:23;;;;;;;;;;;;;;;-144.99;47.29;52073.06;4966683;28;19973;-64
2022/07/03 08:14:50;;;;;;;;;;;;;;;-144.99;46.39;52056.78;4965104;28;19930;-64
2022/07/03 08:17:16;;;;;;;;;;;;;;;-144.99;45.86;52077.16;4967666;28;19945;-66
2022/07/03 08:19:43;;;;;;;;;;;;;;;-144.99;45.65;52048.63;4967543;28;19977;-65
2022/07/03 08:22:09;;;;;;;;;;;;;;;-144.99;45.77;52044.53;4966623;28;19985;-64
2022/07/03 08:24:37;;;;;;;;;;;;;;;-144.99;45.32;52069.00;4967137;28;19969;-65
2022/07/03 08:27:05;;;;;;;;;;;;;;;-144.99;45.62;52056.78;4965895;28;20440;-64
2022/07/03 08:29:32;;;;;;;;;;;;;;;-144.99;46.26;52109.75;4966658;28;20386;-63
2022/07/03 08:31:58;;;;;;;;;;;;;;;-144.99;46.01;52081.22;4961617;28;19952;-65
2022/07/03 08:34:25;;;;;;;;;;;;;;;-144.99;45.77;52093.44;4966739;28;19975;-65
2022/07/03 08:36:51;;;;;;;;;;;;;;;-144.99;45.89;52103.66;4966500;28;20012;-64
2022/07/03 08:39:18;;;;;;;;;;;;;;;-144.99;46.12;52101.59;4969639;28;20004;-65
2022/07/03 08:41:44;;;;;;;;;;;;;;;-144.99;46.04;52087.34;4969425;28;19979;-65
2022/07/03 08:44:13;;;;;;;;;;;;;;;-144.99;46.44;52097.53;4966736;28;20227;-64
2022/07/03 08:46:40;;;;;;;;;;;;;;;-144.99;47.21;52089.38;4966810;28;20188;-64
2022/07/03 08:49:06;;;;;;;;;;;;;;;-144.99;47.02;52134.22;4983182;28;19948;-65
2022/07/03 08:51:33;;;;;;;;;;;;;;;-144.99;46.59;52060.84;4965843;28;20142;-64
2022/07/03 08:54:00;;;;;;;;;;;;;;;-144.99;46.49;52085.31;4966428;28;19973;-65
2022/07/03 08:56:27;;;;;;;;;;;;;;;-144.99;46.55;52056.78;4966389;28;20233;-65
2022/07/03 08:58:54;;;;;;;;;;;;;;;-144.99;46.83;52087.34;4965136;28;19940;-65
2022/07/03 09:01:22;;;;;;;;;;;;;;;-144.99;46.13;52060.84;4967921;28;20396;-64
2022/07/03 09:03:49;;;;;;;;;;;;;;;-144.99;45.22;52024.16;4968615;28;19932;-64
2022/07/03 09:06:16;;;;;;;;;;;;;;;-144.99;44.30;52060.84;4965523;28;20312;-65
2022/07/03 09:08:42;;;;;;;;;;;;;;;-144.99;44.00;52036.38;4969780;28;19976;-63
2022/07/03 09:11:09;;;;;;;;;;;;;;;-144.99;43.70;52016.00;4966177;28;20008;-65
2022/07/03 09:13:35;;;;;;;;;;;;;;;-144.99;43.06;52044.53;4965580;28;19930;-63
2022/07/03 09:16:02;;;;;;;;;;;;;;;-144.99;42.57;52085.31;4966051;28;20397;-64
2022/07/03 09:18:40;;;;;;;;;;;;;;;-144.99;42.57;52028.22;4966086;28;20053;-63
2022/07/03 09:21:08;;;;;;;;;;;;;;;-144.99;42.58;51991.56;4965854;28;20275;-63
2022/07/03 09:23:38;;;;;;;;;;;;;;;-144.99;41.62;52011.94;4961833;28;20032;-64
2022/07/03 09:26:05;;;;;;;;;;;;;;;-144.99;41.27;51989.50;4965979;28;19974;-65
2022/07/03 09:28:46;;;;;;;;;;;;;;;-144.99;40.94;51967.09;4967388;28;20632;-63
2022/07/03 09:31:13;;;;;;;;;;;;;;;-144.99;40.78;52032.31;4962202;28;20404;-62
2022/07/03 09:33:57;;;;;;;;;;;;;;;-144.99;39.39;51975.25;4965744;28;19973;-65
2022/07/03 09:36:24;;;;;;;;;;;;;;;-144.99;38.93;51983.41;4965851;28;20049;-64
2022/07/03 09:38:51;;;;;;;;;;;;;;;-144.99;38.46;52007.84;4965381;28;20018;-63
2022/07/03 09:41:17;;;;;;;;;;;;;;;-144.99;38.35;51993.59;4965317;28;19969;-66
2022/07/03 09:43:44;;;;;;;;;;;;;;;-144.99;38.42;52007.84;4965554;28;20037;-68
2022/07/03 09:46:11;;;;;;;;;;;;;;;-144.99;38.18;51993.59;4965936;28;19961;-68
2022/07/03 09:48:39;;;;;;;;;;;;;;;-144.99;37.88;51979.31;4969292;28;20017;-68
2022/07/03 09:51:11;;;;;;;;;;;;;;;-144.99;36.78;51989.50;4965762;28;19930;-68
2022/07/03 09:53:47;;;;;;;;;;;;;;;-144.99;36.76;51975.25;4965989;28;19926;-68
2022/07/03 09:56:14;;;;;;;;;;;;;;;-144.99;36.57;51967.09;4277198;28;10000729;-69
2022/07/03 09:58:40;;;;;;;;;;;;;;;-144.99;36.95;51946.72;4965164;28;19968;-67
2022/07/03 10:01:17;;;;;;;;;;;;;;;-144.99;36.82;51967.09;4966076;28;19930;-67
2022/07/03 10:03:43;;;;;;;;;;;;;;;-144.99;36.32;51967.09;4965338;28;19983;-68
2022/07/03 10:06:11;;;;;;;;;;;;;;;-144.99;36.62;51979.31;4970540;28;20050;-68
2022/07/03 10:08:38;;;;;;;;;;;;;;;-144.99;36.83;51958.94;4967418;28;19984;-68
2022/07/03 10:11:05;;;;;;;;;;;;;;;-144.99;35.99;51967.09;4965092;28;20380;-68
2022/07/03 10:13:34;;;;;;;;;;;;;;;-144.99;36.32;51965.06;4973993;28;20029;-68
2022/07/03 10:16:01;;;;;;;;;;;;;;;-144.99;35.69;51977.28;4976799;28;19928;-69
2022/07/03 10:18:30;;;;;;;;;;;;;;;-144.99;36.46;51971.16;5012578;28;20480;-68
2022/07/03 10:20:59;;;;;;;;;;;;;;;-144.99;36.56;51893.72;5018219;28;20006;-68
2022/07/03 10:23:27;;;;;;;;;;;;;;;-144.99;37.49;51954.88;4972601;28;20439;-69
2022/07/03 10:25:54;;;;;;;;;;;;;;;-144.99;37.93;51979.31;4967678;28;19930;-68
2022/07/03 10:28:21;;;;;;;;;;;;;;;-144.99;37.47;51979.31;4965574;28;20957;-67
2022/07/03 10:30:48;;;;;;;;;;;;;;;-144.99;37.45;51942.63;4964487;28;20023;-68
2022/07/03 10:33:15;;;;;;;;;;;;;;;-144.99;38.22;51934.50;4964483;28;19937;-68
2022/07/03 10:35:43;;;;;;;;;;;;;;;-144.99;37.71;51963.03;4964175;28;19981;-68
2022/07/03 10:38:19;;;;;;;;;;;;;;;-144.99;37.76;51967.09;4964812;28;20258;-68
2022/07/03 10:46:22;;;;;;;;;;;;;;;-144.99;36.08;51897.81;4967685;28;19941;-69
2022/07/03 10:49:06;;;;;;;;;;;;;;;-144.99;36.26;51895.75;5005868;28;19941;-69
2022/07/03 10:51:51;;;;;;;;;;;;;;;-144.99;36.96;51958.94;4990940;28;20023;-69
2022/07/03 10:54:18;;;;;;;;;;;;;;;-144.99;37.14;51987.47;5003836;28;19928;-69
2022/07/03 10:57:03;;;;;;;;;;;;;;;-144.99;37.18;51973.22;4985724;28;19999;-69
2022/07/03 10:59:44;;;;;;;;;;;;;;;-144.99;35.50;51922.25;4987347;28;20021;-68
2022/07/03 11:02:23;;;;;;;;;;;;;;;-144.99;36.55;51930.41;4971357;28;20386;-68
2022/07/03 11:05:09;;;;;;;;;;;;;;;-144.99;36.30;51905.97;5004061;28;20025;-68
2022/07/03 11:07:39;;;;;;;;;;;;;;;-144.99;34.91;51922.25;4982949;28;19980;-67
2022/07/03 11:10:24;;;;;;;;;;;;;;;-144.99;34.50;51908.00;4984127;28;20021;-68
2022/07/03 11:12:54;;;;;;;;;;;;;;;-144.99;34.50;51877.44;5003682;28;19928;-69
2022/07/03 11:15:27;;;;;;;;;;;;;;;-144.99;34.41;51897.81;4985654;28;20055;-68
2022/07/03 11:18:23;;;;;;;;;;;;;;;-144.99;33.86;51901.88;4983696;28;19930;-68
2022/07/03 11:21:08;;;;;;;;;;;;;;;-144.99;33.91;51865.19;4963090;28;19977;-68
2022/07/03 11:23:43;;;;;;;;;;;;;;;-144.99;33.53;51918.19;4976407;28;20026;-68
2022/07/03 11:26:23;;;;;;;;;;;;;;;-144.99;32.86;51938.56;4981142;28;20021;-69
2022/07/03 11:28:50;;;;;;;;;;;;;;;-144.99;34.05;51891.69;4964392;28;19930;-68
2022/07/03 11:31:17;;;;;;;;;;;;;;;-144.99;32.95;51924.28;4964835;28;20356;-67
2022/07/03 11:33:44;;;;;;;;;;;;;;;-144.99;33.46;51920.22;4964476;28;19991;-68
2022/07/03 11:36:11;;;;;;;;;;;;;;;-144.99;33.75;51938.56;4964162;28;20374;-68
2022/07/03 11:38:39;;;;;;;;;;;;;;;-144.99;34.03;51934.50;4987338;28;20011;-68
2022/07/03 11:41:07;;;;;;;;;;;;;;;-144.99;34.22;51942.63;5022270;28;19985;-68
2022/07/03 11:43:35;;;;;;;;;;;;;;;-144.99;32.63;51901.88;5013584;28;20490;-69
2022/07/03 11:46:01;;;;;;;;;;;;;;;-144.99;32.85;51914.09;4995117;28;19931;-69
2022/07/03 11:48:28;;;;;;;;;;;;;;;-144.99;33.28;51946.72;4993310;28;19930;-69
2022/07/03 11:51:00;;;;;;;;;;;;;;;-144.99;33.40;51926.34;4987006;28;20379;-69
2022/07/03 11:53:27;;;;;;;;;;;;;;;-144.99;32.95;51912.06;5001228;28;20028;-69
2022/07/03 11:55:57;;;;;;;;;;;;;;;-144.99;33.56;51928.38;4967094;28;19926;-68
2022/07/03 11:58:24;;;;;;;;;;;;;;;-144.99;33.06;51914.09;4966883;28;19934;-66
2022/07/03 12:00:51;;;;;;;;;;;;;;;-144.99;33.64;51901.88;4961905;28;20013;-70
2022/07/03 12:03:27;;;;;;;;;;;;;;;-144.99;33.82;51912.06;4966226;28;19951;-68
2022/07/03 12:05:57;;;;;;;;;;;;;;;-144.99;33.86;51865.19;4962884;28;19973;-70
2022/07/03 12:08:25;;;;;;;;;;;;;;;-144.99;33.52;51893.72;4973728;28;19934;-67
2022/07/03 12:10:56;;;;;;;;;;;;;;;-144.99;33.56;51852.97;5033878;28;20101;-68
2022/07/03 12:13:25;;;;;;;;;;;;;;;-144.99;33.20;51873.34;4993134;28;20025;-69
2022/07/03 12:15:51;;;;;;;;;;;;;;;-144.99;32.33;51836.66;4964644;28;20426;-68
2022/07/03 12:18:18;;;;;;;;;;;;;;;-144.99;31.64;51873.34;4963489;28;20381;-68
2022/07/03 12:20:44;;;;;;;;;;;;;;;-144.99;32.07;51873.34;4961729;28;20004;-67
2022/07/03 12:23:12;;;;;;;;;;;;;;;-144.99;32.02;51865.19;4966813;28;19964;-68
2022/07/03 12:25:39;;;;;;;;;;;;;;;-144.99;31.77;51891.69;4984395;28;19929;-69
2022/07/03 12:28:05;;;;;;;;;;;;;;;-144.99;31.47;51893.72;4974794;28;20036;-69
2022/07/03 12:30:34;;;;;;;;;;;;;;;-144.99;31.98;51918.19;4962866;28;20029;-69
2022/07/03 12:33:00;;;;;;;;;;;;;;;-144.99;32.37;51901.88;5005509;28;20013;-69
2022/07/03 12:35:27;;;;;;;;;;;;;;;-144.99;31.65;51865.19;5002343;28;20001;-68
2022/07/03 12:37:54;;;;;;;;;;;;;;;-144.99;31.66;51879.47;4999095;28;20027;-67
2022/07/03 12:40:20;;;;;;;;;;;;;;;-144.99;31.73;51914.09;4975091;28;19932;-67
2022/07/03 12:42:48;;;;;;;;;;;;;;;-144.99;32.17;51922.25;4967217;28;20128;-68